createdAt,value
2023-01-17T00:02:16.033Z,1.23
2023-01-17T00:05:09.444Z,1.96
2023-01-17T00:07:55.253Z,1.85
2023-01-17T00:10:29.297Z,1.70
2023-01-17T00:13:01.172Z,1.38
2023-01-17T00:15:36.761Z,1.50
2023-01-17T00:18:07.736Z,1.29
2023-01-17T00:20:55.417Z,1.55
2023-01-17T00:23:46.837Z,1.52
2023-01-17T00:26:18.075Z,1.24
2023-01-17T00:28:45.922Z,1.59
2023-01-17T00:31:15.849Z,1.66
2023-01-17T00:33:42.850Z,1.72
2023-01-17T00:36:10.983Z,1.71
2023-01-17T00:38:39.209Z,1.77
2023-01-17T00:41:08.431Z,1.74
2023-01-17T00:43:53.955Z,1.75
2023-01-17T00:46:41.274Z,1.11
2023-01-17T00:49:27.227Z,1.54
2023-01-17T00:52:13.356Z,1.71
2023-01-17T00:54:58.878Z,1.91
2023-01-17T00:57:46.317Z,1.80
2023-01-17T01:00:34.806Z,1.92
2023-01-17T01:03:27.156Z,1.92
2023-01-17T01:06:12.916Z,1.78
2023-01-17T01:08:58.313Z,1.91
2023-01-17T01:11:46.798Z,1.91
2023-01-17T01:14:32.507Z,2.02
2023-01-17T01:17:20.254Z,-4.09
2023-01-17T01:20:07.010Z,2.02
2023-01-17T01:22:54.999Z,1.94
2023-01-17T01:25:40.673Z,1.97
2023-01-17T01:28:29.516Z,2.00
2023-01-17T01:31:17.659Z,2.04
2023-01-17T01:33:48.227Z,2.07
2023-01-17T01:36:18.018Z,2.11
2023-01-17T01:38:47.373Z,2.18
2023-01-17T01:41:15.618Z,2.25
2023-01-17T01:43:47.408Z,2.22
2023-01-17T01:46:19.818Z,2.14
2023-01-17T01:48:54.185Z,1.97
2023-01-17T01:51:32.961Z,2.08
2023-01-17T01:54:07.447Z,2.04
2023-01-17T01:56:36.091Z,2.10
2023-01-17T01:59:08.314Z,2.00
2023-01-17T02:01:36.659Z,2.03
2023-01-17T02:04:09.967Z,1.67
2023-01-17T02:06:43.400Z,2.08
2023-01-17T02:09:13.925Z,1.94
2023-01-17T02:11:42.846Z,1.60
2023-01-17T02:14:16.934Z,1.80
2023-01-17T02:17:01.140Z,1.72
2023-01-17T02:20:09.818Z,0.93
2023-01-17T02:23:22.792Z,1.79
2023-01-17T02:26:24.788Z,1.91
2023-01-17T02:29:13.591Z,1.83
2023-01-17T02:31:48.605Z,1.92
2023-01-17T02:34:26.098Z,0.74
2023-01-17T02:37:02.246Z,1.99
2023-01-17T02:39:38.219Z,1.87
2023-01-17T02:42:09.471Z,1.81
2023-01-17T02:44:49.801Z,1.96
2023-01-17T02:47:24.380Z,2.00
2023-01-17T02:49:53.943Z,1.89
2023-01-17T02:52:38.643Z,1.89
2023-01-17T02:55:22.666Z,1.98
2023-01-17T02:58:07.815Z,1.93
2023-01-17T03:00:45.882Z,1.25
2023-01-17T03:03:25.732Z,1.72
2023-01-17T03:05:58.123Z,1.88
2023-01-17T03:08:28.212Z,1.85
2023-01-17T03:10:59.002Z,1.83
2023-01-17T03:13:27.269Z,1.97
2023-01-17T03:15:55.525Z,2.00
2023-01-17T03:18:25.447Z,1.97
2023-01-17T03:20:53.587Z,1.92
2023-01-17T03:23:21.843Z,1.84
2023-01-17T03:25:52.418Z,1.82
2023-01-17T03:28:20.594Z,1.75
2023-01-17T03:30:48.842Z,1.85
2023-01-17T03:33:18.013Z,1.94
2023-01-17T03:35:48.505Z,1.50
2023-01-17T03:38:16.996Z,1.74
2023-01-17T03:40:45.145Z,1.73
2023-01-17T03:43:15.858Z,1.72
2023-01-17T03:45:44.102Z,0.93
2023-01-17T03:48:12.246Z,1.52
2023-01-17T03:50:40.424Z,1.79
2023-01-17T03:53:11.774Z,1.57
2023-01-17T03:55:39.965Z,1.76
2023-01-17T03:58:08.085Z,1.69
2023-01-17T04:00:44.404Z,1.65
2023-01-17T04:03:12.591Z,1.91
2023-01-17T04:05:43.278Z,1.74
2023-01-17T04:08:16.045Z,1.79
2023-01-17T04:10:44.350Z,1.83
2023-01-17T04:13:13.783Z,1.68
2023-01-17T04:15:42.038Z,1.56
2023-01-17T04:18:13.578Z,1.42
2023-01-17T04:20:42.378Z,1.49
2023-01-17T04:23:10.670Z,1.37
2023-01-17T04:25:40.384Z,1.46
2023-01-17T04:28:08.784Z,1.38
2023-01-17T04:30:37.070Z,1.29
2023-01-17T04:33:06.393Z,1.41
2023-01-17T04:35:39.058Z,1.22
2023-01-17T04:38:07.309Z,1.45
2023-01-17T04:40:35.528Z,1.34
2023-01-17T04:43:07.493Z,1.49
2023-01-17T04:45:38.742Z,1.65
2023-01-17T04:48:08.052Z,1.55
2023-01-17T04:50:36.315Z,1.52
2023-01-17T04:53:04.505Z,1.43
2023-01-17T04:55:32.812Z,1.42
2023-01-17T04:58:01.011Z,1.44
2023-01-17T05:00:30.596Z,1.49
2023-01-17T05:02:58.826Z,1.56
2023-01-17T05:05:27.092Z,1.21
2023-01-17T05:07:56.080Z,1.59
2023-01-17T05:10:24.392Z,1.60
2023-01-17T05:12:56.691Z,1.64
2023-01-17T05:15:28.865Z,1.71
2023-01-17T05:17:58.554Z,1.58
2023-01-17T05:20:28.227Z,1.57
2023-01-17T05:22:59.976Z,1.66
2023-01-17T05:25:30.437Z,1.54
2023-01-17T05:28:00.173Z,1.26
2023-01-17T05:30:29.560Z,1.13
2023-01-17T05:33:00.065Z,1.43
2023-01-17T05:35:30.253Z,1.46
2023-01-17T05:38:01.572Z,1.45
2023-01-17T05:40:31.436Z,1.42
2023-01-17T05:43:01.221Z,1.44
2023-01-17T05:45:33.833Z,1.41
2023-01-17T05:48:09.450Z,1.39
2023-01-17T05:50:39.528Z,1.41
2023-01-17T05:53:10.065Z,1.11
2023-01-17T05:55:39.079Z,1.49
2023-01-17T05:58:08.788Z,1.49
2023-01-17T06:00:37.822Z,1.42
2023-01-17T06:03:07.476Z,1.17
2023-01-17T06:05:36.861Z,1.45
2023-01-17T06:08:05.818Z,0.93
2023-01-17T06:10:34.242Z,1.48
2023-01-17T06:13:03.663Z,1.58
2023-01-17T06:15:34.630Z,0.86
2023-01-17T06:18:08.562Z,1.65
2023-01-17T06:20:39.273Z,1.60
2023-01-17T06:23:11.578Z,1.67
2023-01-17T06:25:40.092Z,1.67
2023-01-17T06:28:11.033Z,1.63
2023-01-17T06:30:39.577Z,1.67
2023-01-17T06:33:11.549Z,0.91
2023-01-17T06:35:41.093Z,1.70
2023-01-17T06:38:10.132Z,1.65
2023-01-17T06:40:45.671Z,1.58
2023-01-17T06:43:13.811Z,1.55
2023-01-17T06:45:42.092Z,1.48
2023-01-17T06:48:13.985Z,1.36
2023-01-17T06:50:42.093Z,1.51
2023-01-17T06:53:11.130Z,1.50
2023-01-17T06:55:40.450Z,1.35
2023-01-17T06:58:10.277Z,1.10
2023-01-17T07:00:40.775Z,1.38
2023-01-17T07:03:16.682Z,1.31
2023-01-17T07:05:44.818Z,1.30
2023-01-17T07:08:15.488Z,1.26
2023-01-17T07:10:46.399Z,1.11
2023-01-17T07:13:17.744Z,1.11
2023-01-17T07:15:45.921Z,1.37
2023-01-17T07:18:24.144Z,1.31
2023-01-17T07:20:52.559Z,1.42
2023-01-17T07:23:22.107Z,1.25
2023-01-17T07:25:53.749Z,1.26
2023-01-17T07:28:22.377Z,1.23
2023-01-17T07:30:50.761Z,1.21
2023-01-17T07:33:21.036Z,1.27
2023-01-17T07:35:51.700Z,1.22
2023-01-17T07:38:21.238Z,1.27
2023-01-17T07:40:49.369Z,1.47
2023-01-17T07:43:19.597Z,1.66
2023-01-17T07:45:52.697Z,1.72
2023-01-17T07:48:25.642Z,1.84
2023-01-17T07:50:55.406Z,2.08
2023-01-17T07:53:25.867Z,2.05
2023-01-17T07:55:56.657Z,2.32
2023-01-17T07:58:24.831Z,2.28
2023-01-17T08:00:54.856Z,2.07
2023-01-17T08:03:24.471Z,2.19
2023-01-17T08:05:57.757Z,2.34
2023-01-17T08:08:27.762Z,2.09
2023-01-17T08:10:56.420Z,1.99
2023-01-17T08:13:24.788Z,2.61
2023-01-17T08:15:54.612Z,1.86
2023-01-17T08:18:25.389Z,2.68
2023-01-17T08:20:54.062Z,2.77
2023-01-17T08:23:23.857Z,2.89
2023-01-17T08:25:52.037Z,2.22
2023-01-17T08:28:22.364Z,2.97
2023-01-17T08:30:50.635Z,2.95
2023-01-17T08:33:18.745Z,2.88
2023-01-17T08:35:58.535Z,2.86
2023-01-17T08:38:26.792Z,2.95
2023-01-17T08:40:54.918Z,2.87
2023-01-17T08:43:25.698Z,2.49
2023-01-17T08:45:56.118Z,2.41
2023-01-17T08:48:24.492Z,2.56
2023-01-17T08:50:54.474Z,2.59
2023-01-17T08:53:23.494Z,2.60
2023-01-17T08:55:58.889Z,2.59
2023-01-17T08:58:30.495Z,2.64
2023-01-17T09:01:02.330Z,2.63
2023-01-17T09:03:33.305Z,2.60
2023-01-17T09:06:11.327Z,2.23
2023-01-17T09:08:42.459Z,2.62
2023-01-17T09:11:12.990Z,2.61
2023-01-17T09:13:43.693Z,2.80
2023-01-17T09:16:11.953Z,2.92
2023-01-17T09:18:42.021Z,3.03
2023-01-17T09:21:16.750Z,3.09
2023-01-17T09:23:45.851Z,3.12
2023-01-17T09:26:20.082Z,3.18
2023-01-17T09:28:48.364Z,3.19
2023-01-17T09:31:17.763Z,3.12
2023-01-17T09:33:48.332Z,3.19
2023-01-17T09:36:18.184Z,3.25
2023-01-17T09:38:46.367Z,3.09
2023-01-17T09:41:27.556Z,3.21
2023-01-17T09:44:02.272Z,3.34
2023-01-17T09:46:33.496Z,3.35
2023-01-17T09:49:07.944Z,2.67
2023-01-17T09:51:40.148Z,3.36
2023-01-17T09:54:20.306Z,3.28
2023-01-17T09:56:56.107Z,3.45
2023-01-17T09:59:35.819Z,3.51
2023-01-17T10:02:18.693Z,3.39
2023-01-17T10:05:04.858Z,3.66
2023-01-17T10:07:44.713Z,3.69
2023-01-17T10:10:30.541Z,3.58
2023-01-17T10:13:09.397Z,3.77
2023-01-17T10:16:01.637Z,3.80
2023-01-17T10:19:05.295Z,3.81
2023-01-17T10:21:49.626Z,3.40
2023-01-17T10:24:40.587Z,3.89
2023-01-17T10:27:19.757Z,3.90
2023-01-17T10:29:50.305Z,4.09
2023-01-17T10:32:20.832Z,4.15
2023-01-17T10:34:51.497Z,4.18
2023-01-17T10:37:25.529Z,4.20
2023-01-17T10:39:59.394Z,4.25
2023-01-17T10:42:34.816Z,4.29
2023-01-17T10:45:11.507Z,4.30
2023-01-17T10:47:42.759Z,4.49
2023-01-17T10:50:16.715Z,4.43
2023-01-17T10:52:55.889Z,4.45
2023-01-17T10:55:39.245Z,4.39
2023-01-17T10:58:12.172Z,4.31
2023-01-17T11:00:49.145Z,4.31
2023-01-17T11:03:20.871Z,4.38
2023-01-17T11:06:17.229Z,4.23
2023-01-17T11:08:53.788Z,3.65
2023-01-17T11:11:25.947Z,4.37
2023-01-17T11:13:56.402Z,3.54
2023-01-17T11:16:34.608Z,4.21
2023-01-17T11:19:10.340Z,4.21
2023-01-17T11:21:41.043Z,4.22
2023-01-17T11:24:17.805Z,4.28
2023-01-17T11:26:50.596Z,4.00
2023-01-17T11:29:35.204Z,4.13
2023-01-17T11:32:37.349Z,4.14
2023-01-17T11:35:21.687Z,3.67
2023-01-17T11:37:52.421Z,4.15
2023-01-17T11:40:26.781Z,3.50
2023-01-17T11:43:19.788Z,4.19
2023-01-17T11:46:02.793Z,4.17
2023-01-17T11:48:37.186Z,4.18
2023-01-17T11:51:15.411Z,4.26
2023-01-17T11:53:48.379Z,3.30
2023-01-17T11:56:25.920Z,4.09
2023-01-17T11:59:13.635Z,3.46
2023-01-17T12:01:48.388Z,3.26
2023-01-17T12:04:24.343Z,4.10
2023-01-17T12:07:06.478Z,4.03
2023-01-17T12:09:43.581Z,3.81
2023-01-17T12:12:40.137Z,3.86
2023-01-17T12:15:26.883Z,3.89
2023-01-17T12:18:20.537Z,3.97
2023-01-17T12:20:58.930Z,3.82
2023-01-17T12:23:40.629Z,3.92
2023-01-17T12:26:24.023Z,3.44
2023-01-17T12:29:19.577Z,3.77
2023-01-17T12:32:01.398Z,3.73
2023-01-17T12:34:35.603Z,3.63
2023-01-17T12:37:14.523Z,3.62
2023-01-17T12:39:48.187Z,3.55
2023-01-17T12:42:23.423Z,3.53
2023-01-17T12:44:59.087Z,3.54
2023-01-17T12:47:30.243Z,3.39
2023-01-17T12:50:08.340Z,3.53
2023-01-17T12:52:48.995Z,3.04
2023-01-17T12:55:21.721Z,3.51
2023-01-17T12:57:58.286Z,2.63
2023-01-17T13:00:29.954Z,3.69
2023-01-17T13:03:08.908Z,3.60
2023-01-17T13:05:40.689Z,3.48
2023-01-17T13:08:19.883Z,3.66
2023-01-17T13:10:52.376Z,3.70
2023-01-17T13:13:24.335Z,3.62
2023-01-17T13:15:55.781Z,3.67
2023-01-17T13:18:29.635Z,3.64
2023-01-17T13:21:07.474Z,3.65
2023-01-17T13:23:51.095Z,2.86
2023-01-17T13:26:30.041Z,3.64
2023-01-17T13:29:09.078Z,3.62
2023-01-17T13:31:49.346Z,3.66
2023-01-17T13:34:52.817Z,3.73
2023-01-17T13:37:46.976Z,2.65
2023-01-17T13:40:37.602Z,3.75
2023-01-17T13:43:16.319Z,3.88
2023-01-17T13:45:56.198Z,3.87
2023-01-17T13:48:31.863Z,3.84
2023-01-17T13:51:03.695Z,3.80
2023-01-17T13:53:51.992Z,3.78
2023-01-17T13:56:36.062Z,3.77
2023-01-17T13:59:07.069Z,3.82
2023-01-17T14:01:54.762Z,2.91
2023-01-17T14:04:24.403Z,3.86
2023-01-17T14:06:57.998Z,3.90
2023-01-17T14:09:34.012Z,3.75
2023-01-17T14:12:32.926Z,3.92
2023-01-17T14:15:06.852Z,3.89
2023-01-17T14:17:51.804Z,3.84
2023-01-17T14:20:36.637Z,3.29
2023-01-17T14:23:37.944Z,3.80
2023-01-17T14:26:27.696Z,3.67
2023-01-17T14:29:00.186Z,3.46
2023-01-17T14:31:29.587Z,3.54
2023-01-17T14:34:13.246Z,3.51
2023-01-17T14:36:41.657Z,3.87
2023-01-17T14:39:23.849Z,3.33
2023-01-17T14:41:55.542Z,3.75
2023-01-17T14:44:23.987Z,3.80
2023-01-17T14:46:52.537Z,3.57
2023-01-17T14:49:26.369Z,3.73
2023-01-17T14:52:02.020Z,3.73
2023-01-17T14:54:31.901Z,3.84
2023-01-17T14:57:33.318Z,3.68
2023-01-17T15:00:13.880Z,3.47
2023-01-17T15:02:44.479Z,3.10
2023-01-17T15:05:17.935Z,3.34
2023-01-17T15:07:51.666Z,3.54
2023-01-17T15:10:24.199Z,3.53
2023-01-17T15:12:53.179Z,3.55
2023-01-17T15:15:37.357Z,3.03
2023-01-17T15:18:20.639Z,3.77
2023-01-17T15:20:54.847Z,3.73
2023-01-17T15:23:27.780Z,3.49
2023-01-17T15:25:58.373Z,3.67
2023-01-17T15:28:28.939Z,3.67
2023-01-17T15:31:06.780Z,2.97
2023-01-17T15:33:36.731Z,3.32
2023-01-17T15:36:07.917Z,3.62
2023-01-17T15:38:39.525Z,3.63
2023-01-17T15:41:18.870Z,3.48
2023-01-17T15:43:47.248Z,3.56
2023-01-17T15:46:34.011Z,3.57
2023-01-17T15:49:17.881Z,3.50
2023-01-17T15:51:57.696Z,3.47
2023-01-17T15:54:35.654Z,3.14
2023-01-17T15:57:19.238Z,2.86
2023-01-17T15:59:52.140Z,3.30
2023-01-17T16:02:43.114Z,3.44
2023-01-17T16:05:47.939Z,3.36
2023-01-17T16:08:27.182Z,3.41
2023-01-17T16:10:58.659Z,3.25
2023-01-17T16:13:30.021Z,3.32
2023-01-17T16:16:23.037Z,3.23
2023-01-17T16:19:01.174Z,3.07
2023-01-17T16:21:31.564Z,2.80
2023-01-17T16:24:01.115Z,2.97
2023-01-17T16:26:36.094Z,3.09
2023-01-17T16:29:07.684Z,3.08
2023-01-17T16:31:37.801Z,3.03
2023-01-17T16:34:12.139Z,3.21
2023-01-17T16:36:40.461Z,3.24
2023-01-17T16:39:08.880Z,3.30
2023-01-17T16:41:37.335Z,2.59
2023-01-17T16:44:09.067Z,3.05
2023-01-17T16:46:38.751Z,3.01
2023-01-17T16:49:07.081Z,2.85
2023-01-17T16:51:35.512Z,2.74
2023-01-17T16:54:03.739Z,2.88
2023-01-17T16:56:32.582Z,2.93
2023-01-17T16:59:00.733Z,2.89
2023-01-17T17:01:31.135Z,2.88
2023-01-17T17:03:59.425Z,2.87
2023-01-17T17:06:27.887Z,2.60
2023-01-17T17:08:56.099Z,2.49
2023-01-17T17:11:24.675Z,2.48
2023-01-17T17:13:53.624Z,2.59
2023-01-17T17:16:24.239Z,2.79
2023-01-17T17:18:58.292Z,2.91
2023-01-17T17:21:27.226Z,2.74
2023-01-17T17:23:58.242Z,2.60
2023-01-17T17:26:29.086Z,2.78
2023-01-17T17:28:57.605Z,2.75
2023-01-17T17:31:26.094Z,2.55
2023-01-17T17:33:58.357Z,2.49
2023-01-17T17:36:29.260Z,2.56
2023-01-17T17:38:58.065Z,2.62
2023-01-17T17:41:27.949Z,2.59
2023-01-17T17:43:56.943Z,2.61
2023-01-17T17:46:27.327Z,2.60
2023-01-17T17:48:55.822Z,2.55
2023-01-17T17:51:26.020Z,1.83
2023-01-17T17:53:56.007Z,2.51
2023-01-17T17:56:25.033Z,2.38
2023-01-17T17:58:53.255Z,2.42
2023-01-17T18:01:22.836Z,2.32
2023-01-17T18:03:51.473Z,2.46
2023-01-17T18:06:19.915Z,2.25
2023-01-17T18:08:48.517Z,2.14
2023-01-17T18:11:21.398Z,2.47
2023-01-17T18:13:51.522Z,2.46
2023-01-17T18:16:21.811Z,2.35
2023-01-17T18:18:52.173Z,2.32
2023-01-17T18:21:23.866Z,2.29
2023-01-17T18:23:54.565Z,2.38
2023-01-17T18:26:26.448Z,2.35
2023-01-17T18:28:55.874Z,2.32
2023-01-17T18:31:25.289Z,2.31
2023-01-17T18:33:54.183Z,2.36
2023-01-17T18:36:23.513Z,2.35
2023-01-17T18:38:52.147Z,2.29
2023-01-17T18:41:22.545Z,2.31
2023-01-17T18:43:52.560Z,2.10
2023-01-17T18:46:21.858Z,2.43
2023-01-17T18:48:50.298Z,2.20
2023-01-17T18:51:20.504Z,2.11
2023-01-17T18:53:48.901Z,2.21
2023-01-17T18:56:19.612Z,2.30
2023-01-17T18:58:49.736Z,2.31
2023-01-17T19:01:21.327Z,2.30
2023-01-17T19:03:51.275Z,2.33
2023-01-17T19:06:22.920Z,2.26
2023-01-17T19:08:52.485Z,2.32
2023-01-17T19:11:21.665Z,2.29
2023-01-17T19:13:50.484Z,2.30
2023-01-17T19:16:24.529Z,2.20
2023-01-17T19:18:53.387Z,1.84
2023-01-17T19:21:23.209Z,2.30
2023-01-17T19:23:51.757Z,2.29
2023-01-17T19:26:22.985Z,2.11
2023-01-17T19:28:51.962Z,2.27
2023-01-17T19:31:23.980Z,0.03
2023-01-17T19:33:54.640Z,2.26
2023-01-17T19:36:24.906Z,2.20
2023-01-17T19:39:03.925Z,2.15
2023-01-17T19:41:32.969Z,2.23
2023-01-17T19:44:03.362Z,2.17
2023-01-17T19:46:33.733Z,2.24
2023-01-17T19:49:02.377Z,1.57
2023-01-17T19:51:30.632Z,2.20
2023-01-17T19:54:01.546Z,2.21
2023-01-17T19:56:30.487Z,2.21
2023-01-17T19:59:01.513Z,2.17
2023-01-17T20:01:33.392Z,2.28
2023-01-17T20:04:02.741Z,2.24
2023-01-17T20:06:32.608Z,2.37
2023-01-17T20:09:00.832Z,2.36
2023-01-17T20:11:29.971Z,2.14
2023-01-17T20:14:00.132Z,2.43
2023-01-17T20:16:30.431Z,2.33
2023-01-17T20:19:02.568Z,2.16
2023-01-17T20:21:33.012Z,2.28
2023-01-17T20:24:04.414Z,2.32
2023-01-17T20:26:35.976Z,2.13
2023-01-17T20:29:10.456Z,2.40
2023-01-17T20:31:39.753Z,2.07
2023-01-17T20:34:11.649Z,2.32
2023-01-17T20:36:40.616Z,2.22
2023-01-17T20:39:11.142Z,2.28
2023-01-17T20:41:40.883Z,1.79
2023-01-17T20:44:12.261Z,2.29
2023-01-17T20:46:42.049Z,2.22
2023-01-17T20:49:15.076Z,2.19
2023-01-17T20:51:44.619Z,2.14
2023-01-17T20:54:14.713Z,1.93
2023-01-17T20:56:43.530Z,2.42
2023-01-17T20:59:14.588Z,2.10
2023-01-17T21:01:43.849Z,2.59
2023-01-17T21:04:14.859Z,2.69
2023-01-17T21:06:44.545Z,2.59
2023-01-17T21:09:14.814Z,2.47
2023-01-17T21:11:43.168Z,2.06
2023-01-17T21:14:11.316Z,2.40
2023-01-17T21:16:39.768Z,2.36
2023-01-17T21:19:12.015Z,2.25
2023-01-17T21:21:41.836Z,2.43
2023-01-17T21:24:19.051Z,1.45
2023-01-17T21:26:47.686Z,2.49
2023-01-17T21:29:16.486Z,2.46
2023-01-17T21:31:45.361Z,2.53
2023-01-17T21:34:14.823Z,2.54
2023-01-17T21:36:44.490Z,2.54
2023-01-17T21:39:16.077Z,2.63
2023-01-17T21:41:47.949Z,2.46
2023-01-17T21:44:19.896Z,2.52
2023-01-17T21:46:49.083Z,2.36
2023-01-17T21:49:17.429Z,2.40
2023-01-17T21:52:04.859Z,2.43
2023-01-17T21:54:50.934Z,2.31
2023-01-17T21:57:38.552Z,2.41
2023-01-17T22:00:08.632Z,2.39
2023-01-17T22:02:36.859Z,2.62
2023-01-17T22:05:05.788Z,2.70
2023-01-17T22:07:35.912Z,2.54
2023-01-17T22:10:04.064Z,2.61
2023-01-17T22:12:32.332Z,2.50
2023-01-17T22:15:00.475Z,2.42
2023-01-17T22:17:30.475Z,2.57
2023-01-17T22:19:58.679Z,2.57
2023-01-17T22:22:26.896Z,2.12
2023-01-17T22:24:56.536Z,2.58
2023-01-17T22:27:24.714Z,2.54
2023-01-17T22:29:53.046Z,2.49
2023-01-17T22:32:21.270Z,2.54
2023-01-17T22:34:49.377Z,2.45
2023-01-17T22:37:17.469Z,2.60
2023-01-17T22:39:46.335Z,2.49
2023-01-17T22:42:16.702Z,2.65
2023-01-17T22:44:45.824Z,2.64
2023-01-17T22:47:13.942Z,2.57
2023-01-17T22:49:42.328Z,2.52
2023-01-17T22:52:10.456Z,2.55
2023-01-17T22:54:38.571Z,2.53
2023-01-17T22:57:06.761Z,2.44
2023-01-17T22:59:36.660Z,2.02
2023-01-17T23:02:04.830Z,2.60
2023-01-17T23:04:32.996Z,2.52
2023-01-17T23:07:01.158Z,2.48
2023-01-17T23:09:29.517Z,2.53
2023-01-17T23:11:57.637Z,2.42
2023-01-17T23:14:29.528Z,2.35
2023-01-17T23:17:18.169Z,2.60
2023-01-17T23:19:49.443Z,2.61
2023-01-17T23:22:22.796Z,2.03
2023-01-17T23:24:52.843Z,2.55
2023-01-17T23:27:41.088Z,2.53
2023-01-17T23:30:12.068Z,2.51
2023-01-17T23:32:45.690Z,2.52
2023-01-17T23:35:13.952Z,2.58
2023-01-17T23:37:56.048Z,2.58
2023-01-17T23:40:24.381Z,2.56
2023-01-17T23:43:09.961Z,2.35
2023-01-17T23:45:38.852Z,2.59
2023-01-17T23:48:10.854Z,2.58
2023-01-17T23:50:40.488Z,2.55
2023-01-17T23:53:08.995Z,2.59
2023-01-17T23:55:38.978Z,2.60
2023-01-17T23:58:08.214Z,2.58
